sensor_id;sensor_type;location;lat;lon;timestamp;pressure;altitude;pressure_sealevel;temperature;humidity
58072;BME280;60383;46.626;18.866;2023-02-04T00:01:44;100247.38;;;4.77;81.70
58072;BME280;60383;46.626;18.866;2023-02-04T00:04:11;100257.63;;;4.85;81.63
58072;BME280;60383;46.626;18.866;2023-02-04T00:06:37;100246.78;;;4.85;82.18
58072;BME280;60383;46.626;18.866;2023-02-04T00:09:03;100255.06;;;4.84;82.62
58072;BME280;60383;46.626;18.866;2023-02-04T00:11:28;100244.31;;;4.93;82.74
58072;BME280;60383;46.626;18.866;2023-02-04T00:13:54;100246.75;;;4.96;82.47
58072;BME280;60383;46.626;18.866;2023-02-04T00:16:19;100237.25;;;4.91;83.42
58072;BME280;60383;46.626;18.866;2023-02-04T00:18:45;100239.88;;;4.81;83.46
58072;BME280;60383;46.626;18.866;2023-02-04T00:21:10;100227.66;;;4.87;83.23
58072;BME280;60383;46.626;18.866;2023-02-04T00:23:35;100229.63;;;4.96;83.07
58072;BME280;60383;46.626;18.866;2023-02-04T00:26:01;100226.91;;;4.96;82.77
58072;BME280;60383;46.626;18.866;2023-02-04T00:28:26;100227.91;;;4.95;83.12
58072;BME280;60383;46.626;18.866;2023-02-04T00:30:52;100233.81;;;5.00;82.91
58072;BME280;60383;46.626;18.866;2023-02-04T00:33:17;100231.09;;;4.77;83.52
58072;BME280;60383;46.626;18.866;2023-02-04T00:35:43;100217.28;;;5.03;82.89
58072;BME280;60383;46.626;18.866;2023-02-04T00:38:08;100224.03;;;5.09;82.48
58072;BME280;60383;46.626;18.866;2023-02-04T00:40:33;100220.47;;;5.08;82.25
58072;BME280;60383;46.626;18.866;2023-02-04T00:42:59;100213.69;;;5.03;82.20
58072;BME280;60383;46.626;18.866;2023-02-04T00:45:24;100218.09;;;5.15;81.71
58072;BME280;60383;46.626;18.866;2023-02-04T00:47:50;100208.09;;;5.16;81.48
58072;BME280;60383;46.626;18.866;2023-02-04T00:50:16;100207.06;;;5.28;80.88
58072;BME280;60383;46.626;18.866;2023-02-04T00:52:41;100217.09;;;5.27;81.19
58072;BME280;60383;46.626;18.866;2023-02-04T00:55:07;100206.75;;;5.10;81.47
58072;BME280;60383;46.626;18.866;2023-02-04T00:57:34;100215.28;;;5.05;82.43
58072;BME280;60383;46.626;18.866;2023-02-04T01:00:00;100219.84;;;5.05;82.81
58072;BME280;60383;46.626;18.866;2023-02-04T01:02:25;100207.72;;;5.20;81.53
58072;BME280;60383;46.626;18.866;2023-02-04T01:04:51;100204.81;;;5.33;80.67
58072;BME280;60383;46.626;18.866;2023-02-04T01:07:16;100207.81;;;5.30;80.50
58072;BME280;60383;46.626;18.866;2023-02-04T01:09:42;100208.94;;;5.27;80.58
58072;BME280;60383;46.626;18.866;2023-02-04T01:12:07;100210.25;;;5.33;80.67
58072;BME280;60383;46.626;18.866;2023-02-04T01:14:33;100211.06;;;5.24;80.75
58072;BME280;60383;46.626;18.866;2023-02-04T01:16:58;100206.41;;;5.36;79.65
58072;BME280;60383;46.626;18.866;2023-02-04T01:19:24;100214.47;;;5.37;79.38
58072;BME280;60383;46.626;18.866;2023-02-04T01:21:49;100202.72;;;5.37;79.69
58072;BME280;60383;46.626;18.866;2023-02-04T01:24:14;100194.47;;;5.38;79.32
58072;BME280;60383;46.626;18.866;2023-02-04T01:26:40;100200.00;;;5.37;79.28
58072;BME280;60383;46.626;18.866;2023-02-04T01:29:05;100197.38;;;5.47;78.15
58072;BME280;60383;46.626;18.866;2023-02-04T01:31:31;100199.69;;;5.51;77.57
58072;BME280;60383;46.626;18.866;2023-02-04T01:33:58;100195.84;;;5.54;77.59
58072;BME280;60383;46.626;18.866;2023-02-04T01:36:24;100198.31;;;5.57;76.78
58072;BME280;60383;46.626;18.866;2023-02-04T01:38:50;100187.47;;;5.57;77.39
58072;BME280;60383;46.626;18.866;2023-02-04T01:41:16;100202.25;;;5.64;77.12
58072;BME280;60383;46.626;18.866;2023-02-04T01:43:42;100191.03;;;5.57;77.20
58072;BME280;60383;46.626;18.866;2023-02-04T01:46:08;100192.88;;;5.57;76.28
58072;BME280;60383;46.626;18.866;2023-02-04T01:48:33;100187.66;;;5.65;76.34
58072;BME280;60383;46.626;18.866;2023-02-04T01:51:05;100189.78;;;5.62;76.37
58072;BME280;60383;46.626;18.866;2023-02-04T01:53:32;100202.88;;;5.56;77.84
58072;BME280;60383;46.626;18.866;2023-02-04T01:55:58;100194.22;;;5.63;76.26
58072;BME280;60383;46.626;18.866;2023-02-04T01:58:23;100204.75;;;5.56;75.69
58072;BME280;60383;46.626;18.866;2023-02-04T02:00:50;100207.69;;;5.64;76.22
58072;BME280;60383;46.626;18.866;2023-02-04T02:03:15;100207.28;;;5.69;75.89
58072;BME280;60383;46.626;18.866;2023-02-04T02:05:47;100209.13;;;5.47;76.23
58072;BME280;60383;46.626;18.866;2023-02-04T02:08:14;100206.41;;;5.68;75.89
58072;BME280;60383;46.626;18.866;2023-02-04T02:10:43;100217.06;;;5.60;76.31
58072;BME280;60383;46.626;18.866;2023-02-04T02:13:11;100222.31;;;5.52;76.34
58072;BME280;60383;46.626;18.866;2023-02-04T02:15:37;100217.34;;;5.57;77.11
58072;BME280;60383;46.626;18.866;2023-02-04T02:18:03;100211.63;;;5.60;76.77
58072;BME280;60383;46.626;18.866;2023-02-04T02:20:28;100221.78;;;5.58;76.75
58072;BME280;60383;46.626;18.866;2023-02-04T02:25:27;100214.34;;;5.60;76.11
58072;BME280;60383;46.626;18.866;2023-02-04T02:27:53;100210.31;;;5.54;76.94
58072;BME280;60383;46.626;18.866;2023-02-04T02:30:19;100218.16;;;5.36;77.22
58072;BME280;60383;46.626;18.866;2023-02-04T02:32:45;100213.47;;;5.38;76.65
58072;BME280;60383;46.626;18.866;2023-02-04T02:35:12;100208.66;;;5.42;77.03
58072;BME280;60383;46.626;18.866;2023-02-04T02:37:38;100204.53;;;5.48;75.98
58072;BME280;60383;46.626;18.866;2023-02-04T02:40:05;100207.84;;;5.51;75.66
58072;BME280;60383;46.626;18.866;2023-02-04T02:42:31;100213.56;;;5.48;75.46
58072;BME280;60383;46.626;18.866;2023-02-04T02:44:57;100214.88;;;5.54;74.75
58072;BME280;60383;46.626;18.866;2023-02-04T02:47:23;100208.19;;;5.58;74.42
58072;BME280;60383;46.626;18.866;2023-02-04T02:49:51;100210.44;;;5.53;74.58
58072;BME280;60383;46.626;18.866;2023-02-04T02:52:18;100212.66;;;5.59;74.52
58072;BME280;60383;46.626;18.866;2023-02-04T02:54:44;100216.94;;;5.29;75.43
58072;BME280;60383;46.626;18.866;2023-02-04T02:57:15;100215.16;;;5.51;74.62
58072;BME280;60383;46.626;18.866;2023-02-04T02:59:41;100210.19;;;5.56;74.13
58072;BME280;60383;46.626;18.866;2023-02-04T03:02:08;100215.63;;;5.56;73.70
58072;BME280;60383;46.626;18.866;2023-02-04T03:04:48;100209.56;;;5.52;73.54
58072;BME280;60383;46.626;18.866;2023-02-04T03:07:15;100201.97;;;5.67;74.00
58072;BME280;60383;46.626;18.866;2023-02-04T03:09:42;100212.84;;;5.67;73.47
58072;BME280;60383;46.626;18.866;2023-02-04T03:12:08;100207.81;;;5.63;73.20
58072;BME280;60383;46.626;18.866;2023-02-04T03:14:33;100198.41;;;5.67;73.28
58072;BME280;60383;46.626;18.866;2023-02-04T03:17:01;100191.09;;;5.67;73.51
58072;BME280;60383;46.626;18.866;2023-02-04T03:19:28;100208.28;;;5.68;73.25
58072;BME280;60383;46.626;18.866;2023-02-04T03:21:55;100205.56;;;5.68;73.49
58072;BME280;60383;46.626;18.866;2023-02-04T03:24:21;100201.84;;;5.69;73.23
58072;BME280;60383;46.626;18.866;2023-02-04T03:26:47;100194.47;;;5.59;74.05
58072;BME280;60383;46.626;18.866;2023-02-04T03:29:13;100197.13;;;5.71;73.89
58072;BME280;60383;46.626;18.866;2023-02-04T03:31:38;100198.00;;;5.71;73.64
58072;BME280;60383;46.626;18.866;2023-02-04T03:34:04;100202.16;;;5.75;73.83
58072;BME280;60383;46.626;18.866;2023-02-04T03:36:29;100208.88;;;5.71;74.55
58072;BME280;60383;46.626;18.866;2023-02-04T03:38:55;100204.69;;;5.67;74.16
58072;BME280;60383;46.626;18.866;2023-02-04T03:41:21;100205.22;;;5.61;74.24
58072;BME280;60383;46.626;18.866;2023-02-04T03:43:47;100207.22;;;5.59;74.72
58072;BME280;60383;46.626;18.866;2023-02-04T03:46:12;100211.84;;;5.68;74.59
58072;BME280;60383;46.626;18.866;2023-02-04T03:48:38;100201.13;;;5.67;74.50
58072;BME280;60383;46.626;18.866;2023-02-04T03:51:03;100193.28;;;5.73;74.19
58072;BME280;60383;46.626;18.866;2023-02-04T03:53:29;100195.53;;;5.68;74.64
58072;BME280;60383;46.626;18.866;2023-02-04T03:55:54;100196.22;;;5.60;74.45
58072;BME280;60383;46.626;18.866;2023-02-04T03:58:20;100193.03;;;5.55;74.83
58072;BME280;60383;46.626;18.866;2023-02-04T04:00:45;100184.94;;;5.65;74.83
58072;BME280;60383;46.626;18.866;2023-02-04T04:03:11;100197.13;;;5.71;74.99
58072;BME280;60383;46.626;18.866;2023-02-04T04:05:36;100184.41;;;5.71;74.86
58072;BME280;60383;46.626;18.866;2023-02-04T04:08:02;100208.81;;;5.62;75.29
58072;BME280;60383;46.626;18.866;2023-02-04T04:10:27;100191.94;;;5.47;75.36
58072;BME280;60383;46.626;18.866;2023-02-04T04:12:55;100182.34;;;5.64;75.39
58072;BME280;60383;46.626;18.866;2023-02-04T04:15:21;100186.41;;;5.48;75.77
58072;BME280;60383;46.626;18.866;2023-02-04T04:17:47;100177.50;;;5.67;74.53
58072;BME280;60383;46.626;18.866;2023-02-04T04:20:12;100171.63;;;5.62;74.70
58072;BME280;60383;46.626;18.866;2023-02-04T04:22:38;100174.19;;;5.64;74.53
58072;BME280;60383;46.626;18.866;2023-02-04T04:25:04;100166.31;;;5.60;75.10
58072;BME280;60383;46.626;18.866;2023-02-04T04:27:30;100166.91;;;5.64;73.97
58072;BME280;60383;46.626;18.866;2023-02-04T04:29:55;100164.97;;;5.55;74.75
58072;BME280;60383;46.626;18.866;2023-02-04T04:32:21;100160.00;;;5.60;75.15
58072;BME280;60383;46.626;18.866;2023-02-04T04:34:47;100156.78;;;5.66;74.69
58072;BME280;60383;46.626;18.866;2023-02-04T04:37:12;100160.34;;;5.67;74.37
58072;BME280;60383;46.626;18.866;2023-02-04T04:39:37;100164.00;;;5.56;74.20
58072;BME280;60383;46.626;18.866;2023-02-04T04:42:03;100164.19;;;5.64;74.13
58072;BME280;60383;46.626;18.866;2023-02-04T04:44:28;100170.84;;;5.71;73.98
58072;BME280;60383;46.626;18.866;2023-02-04T04:46:54;100170.09;;;5.69;74.18
58072;BME280;60383;46.626;18.866;2023-02-04T04:49:19;100178.78;;;5.63;74.30
58072;BME280;60383;46.626;18.866;2023-02-04T04:51:45;100180.28;;;5.56;74.83
58072;BME280;60383;46.626;18.866;2023-02-04T04:54:10;100178.31;;;5.58;75.10
58072;BME280;60383;46.626;18.866;2023-02-04T04:56:36;100180.66;;;5.63;74.45
58072;BME280;60383;46.626;18.866;2023-02-04T04:59:01;100179.38;;;5.67;74.46
58072;BME280;60383;46.626;18.866;2023-02-04T05:01:27;100160.88;;;5.60;74.12
58072;BME280;60383;46.626;18.866;2023-02-04T05:03:53;100163.88;;;5.79;72.96
58072;BME280;60383;46.626;18.866;2023-02-04T05:06:18;100160.22;;;5.68;73.40
58072;BME280;60383;46.626;18.866;2023-02-04T05:08:50;100155.78;;;5.67;73.95
58072;BME280;60383;46.626;18.866;2023-02-04T05:11:15;100156.13;;;5.74;73.51
58072;BME280;60383;46.626;18.866;2023-02-04T05:13:41;100145.84;;;5.78;73.39
58072;BME280;60383;46.626;18.866;2023-02-04T05:16:06;100151.47;;;5.65;73.83
58072;BME280;60383;46.626;18.866;2023-02-04T05:18:32;100142.25;;;5.77;73.53
58072;BME280;60383;46.626;18.866;2023-02-04T05:20:57;100153.84;;;5.79;73.05
58072;BME280;60383;46.626;18.866;2023-02-04T05:23:23;100148.66;;;5.66;73.30
58072;BME280;60383;46.626;18.866;2023-02-04T05:25:48;100144.66;;;5.70;73.88
58072;BME280;60383;46.626;18.866;2023-02-04T05:28:13;100137.25;;;5.72;73.14
58072;BME280;60383;46.626;18.866;2023-02-04T05:30:39;100141.19;;;5.68;73.09
58072;BME280;60383;46.626;18.866;2023-02-04T05:33:04;100145.19;;;5.64;72.95
58072;BME280;60383;46.626;18.866;2023-02-04T05:35:30;100140.75;;;5.63;72.88
58072;BME280;60383;46.626;18.866;2023-02-04T05:37:55;100147.22;;;5.72;72.20
58072;BME280;60383;46.626;18.866;2023-02-04T05:40:21;100124.91;;;5.68;72.71
58072;BME280;60383;46.626;18.866;2023-02-04T05:42:47;100138.22;;;5.71;72.38
58072;BME280;60383;46.626;18.866;2023-02-04T05:45:14;100135.91;;;5.67;72.44
58072;BME280;60383;46.626;18.866;2023-02-04T05:47:40;100135.06;;;5.66;72.30
58072;BME280;60383;46.626;18.866;2023-02-04T05:50:06;100137.19;;;5.63;72.24
58072;BME280;60383;46.626;18.866;2023-02-04T05:52:32;100144.72;;;5.59;72.55
58072;BME280;60383;46.626;18.866;2023-02-04T05:54:57;100144.19;;;5.65;71.99
58072;BME280;60383;46.626;18.866;2023-02-04T05:57:22;100143.47;;;5.42;72.26
58072;BME280;60383;46.626;18.866;2023-02-04T05:59:48;100140.84;;;5.40;72.06
58072;BME280;60383;46.626;18.866;2023-02-04T06:02:13;100133.06;;;5.47;71.97
58072;BME280;60383;46.626;18.866;2023-02-04T06:04:39;100137.22;;;5.51;72.63
58072;BME280;60383;46.626;18.866;2023-02-04T06:07:04;100148.53;;;5.35;72.50
58072;BME280;60383;46.626;18.866;2023-02-04T06:09:30;100158.13;;;5.39;72.77
58072;BME280;60383;46.626;18.866;2023-02-04T06:11:55;100151.09;;;5.48;72.20
58072;BME280;60383;46.626;18.866;2023-02-04T06:14:21;100154.56;;;5.60;70.78
58072;BME280;60383;46.626;18.866;2023-02-04T06:16:47;100174.34;;;5.62;71.33
58072;BME280;60383;46.626;18.866;2023-02-04T06:19:12;100191.94;;;5.47;72.58
58072;BME280;60383;46.626;18.866;2023-02-04T06:21:38;100164.06;;;5.66;71.34
58072;BME280;60383;46.626;18.866;2023-02-04T06:24:04;100198.38;;;5.46;73.53
58072;BME280;60383;46.626;18.866;2023-02-04T06:26:29;100182.78;;;5.48;74.89
58072;BME280;60383;46.626;18.866;2023-02-04T06:28:55;100187.50;;;5.13;77.34
58072;BME280;60383;46.626;18.866;2023-02-04T06:31:20;100196.06;;;4.97;77.33
58072;BME280;60383;46.626;18.866;2023-02-04T06:33:46;100220.97;;;4.91;76.36
58072;BME280;60383;46.626;18.866;2023-02-04T06:36:11;100229.28;;;4.67;75.80
58072;BME280;60383;46.626;18.866;2023-02-04T06:38:37;100233.72;;;4.56;76.72
58072;BME280;60383;46.626;18.866;2023-02-04T06:41:02;100237.28;;;4.57;76.43
58072;BME280;60383;46.626;18.866;2023-02-04T06:43:27;100234.47;;;4.70;76.88
58072;BME280;60383;46.626;18.866;2023-02-04T06:45:53;100248.25;;;4.89;74.99
58072;BME280;60383;46.626;18.866;2023-02-04T06:48:19;100245.16;;;4.94;75.58
58072;BME280;60383;46.626;18.866;2023-02-04T06:50:44;100255.84;;;5.18;74.96
58072;BME280;60383;46.626;18.866;2023-02-04T06:53:10;100256.72;;;5.63;72.72
58072;BME280;60383;46.626;18.866;2023-02-04T06:55:35;100253.28;;;6.14;69.87
58072;BME280;60383;46.626;18.866;2023-02-04T06:58:01;100264.13;;;5.60;70.61
58072;BME280;60383;46.626;18.866;2023-02-04T07:00:26;100263.88;;;5.31;69.75
58072;BME280;60383;46.626;18.866;2023-02-04T07:02:52;100260.19;;;5.09;70.70
58072;BME280;60383;46.626;18.866;2023-02-04T07:05:17;100256.56;;;5.97;67.48
58072;BME280;60383;46.626;18.866;2023-02-04T07:07:43;100256.97;;;6.96;63.46
58072;BME280;60383;46.626;18.866;2023-02-04T07:10:09;100250.91;;;8.02;59.79
58072;BME280;60383;46.626;18.866;2023-02-04T07:12:34;100242.31;;;7.58;59.73
58072;BME280;60383;46.626;18.866;2023-02-04T07:14:59;100250.84;;;6.73;61.50
58072;BME280;60383;46.626;18.866;2023-02-04T07:17:25;100255.44;;;7.13;60.85
58072;BME280;60383;46.626;18.866;2023-02-04T07:19:50;100244.38;;;6.64;62.06
58072;BME280;60383;46.626;18.866;2023-02-04T07:22:17;100243.66;;;6.10;61.96
58072;BME280;60383;46.626;18.866;2023-02-04T07:24:43;100267.44;;;5.64;63.48
58072;BME280;60383;46.626;18.866;2023-02-04T07:27:08;100264.66;;;5.54;64.09
58072;BME280;60383;46.626;18.866;2023-02-04T07:29:33;100269.53;;;5.28;64.76
58072;BME280;60383;46.626;18.866;2023-02-04T07:31:59;100273.97;;;5.29;63.96
58072;BME280;60383;46.626;18.866;2023-02-04T07:34:24;100279.69;;;5.15;63.72
58072;BME280;60383;46.626;18.866;2023-02-04T07:36:50;100272.00;;;5.20;64.69
58072;BME280;60383;46.626;18.866;2023-02-04T07:39:15;100275.78;;;4.96;64.71
58072;BME280;60383;46.626;18.866;2023-02-04T07:41:41;100280.66;;;5.14;64.12
58072;BME280;60383;46.626;18.866;2023-02-04T07:44:06;100277.81;;;5.15;63.26
58072;BME280;60383;46.626;18.866;2023-02-04T07:46:32;100261.19;;;4.86;63.85
58072;BME280;60383;46.626;18.866;2023-02-04T07:48:57;100276.78;;;4.84;64.37
58072;BME280;60383;46.626;18.866;2023-02-04T07:51:23;100258.63;;;4.84;64.86
58072;BME280;60383;46.626;18.866;2023-02-04T07:53:49;100277.50;;;4.86;64.95
58072;BME280;60383;46.626;18.866;2023-02-04T07:56:15;100277.00;;;5.03;63.39
58072;BME280;60383;46.626;18.866;2023-02-04T07:58:41;100273.03;;;4.85;63.34
58072;BME280;60383;46.626;18.866;2023-02-04T08:01:06;100287.47;;;4.74;62.20
58072;BME280;60383;46.626;18.866;2023-02-04T08:03:31;100280.69;;;4.79;61.46
58072;BME280;60383;46.626;18.866;2023-02-04T08:05:57;100299.53;;;4.47;62.38
58072;BME280;60383;46.626;18.866;2023-02-04T08:08:22;100306.97;;;4.56;62.08
58072;BME280;60383;46.626;18.866;2023-02-04T08:10:48;100307.94;;;4.44;61.74
58072;BME280;60383;46.626;18.866;2023-02-04T08:13:13;100324.47;;;4.52;59.18
58072;BME280;60383;46.626;18.866;2023-02-04T08:15:38;100325.03;;;4.22;60.11
58072;BME280;60383;46.626;18.866;2023-02-04T08:18:04;100354.72;;;4.23;60.84
58072;BME280;60383;46.626;18.866;2023-02-04T08:20:30;100339.16;;;4.72;58.89
58072;BME280;60383;46.626;18.866;2023-02-04T08:22:56;100332.47;;;4.65;59.09
58072;BME280;60383;46.626;18.866;2023-02-04T08:25:21;100338.19;;;4.15;60.10
58072;BME280;60383;46.626;18.866;2023-02-04T08:27:47;100338.94;;;4.17;60.54
58072;BME280;60383;46.626;18.866;2023-02-04T08:30:12;100348.88;;;4.05;60.43
58072;BME280;60383;46.626;18.866;2023-02-04T08:32:38;100336.59;;;4.24;60.32
58072;BME280;60383;46.626;18.866;2023-02-04T08:35:04;100352.91;;;3.99;59.62
58072;BME280;60383;46.626;18.866;2023-02-04T08:37:30;100343.78;;;4.36;59.22
58072;BME280;60383;46.626;18.866;2023-02-04T08:39:56;100358.63;;;4.77;59.58
58072;BME280;60383;46.626;18.866;2023-02-04T08:42:21;100368.78;;;5.09;58.43
58072;BME280;60383;46.626;18.866;2023-02-04T08:44:47;100380.88;;;4.94;58.17
58072;BME280;60383;46.626;18.866;2023-02-04T08:47:12;100374.16;;;4.53;58.39
58072;BME280;60383;46.626;18.866;2023-02-04T08:49:38;100386.09;;;4.50;58.57
58072;BME280;60383;46.626;18.866;2023-02-04T08:52:03;100398.75;;;4.38;58.63
58072;BME280;60383;46.626;18.866;2023-02-04T08:54:30;100377.00;;;4.62;58.93
58072;BME280;60383;46.626;18.866;2023-02-04T08:56:57;100396.88;;;4.63;58.70
58072;BME280;60383;46.626;18.866;2023-02-04T08:59:23;100401.84;;;4.92;57.87
58072;BME280;60383;46.626;18.866;2023-02-04T09:01:50;100394.34;;;5.07;58.50
58072;BME280;60383;46.626;18.866;2023-02-04T09:04:17;100397.41;;;5.02;57.62
58072;BME280;60383;46.626;18.866;2023-02-04T09:06:43;100391.94;;;4.68;57.69
58072;BME280;60383;46.626;18.866;2023-02-04T09:09:09;100405.09;;;4.61;58.11
58072;BME280;60383;46.626;18.866;2023-02-04T09:11:35;100423.66;;;4.43;58.26
58072;BME280;60383;46.626;18.866;2023-02-04T09:14:00;100465.00;;;4.23;58.54
58072;BME280;60383;46.626;18.866;2023-02-04T09:16:26;100434.34;;;4.34;58.33
58072;BME280;60383;46.626;18.866;2023-02-04T09:18:51;100480.63;;;4.19;59.51
58072;BME280;60383;46.626;18.866;2023-02-04T09:21:17;100472.22;;;4.35;59.35
58072;BME280;60383;46.626;18.866;2023-02-04T09:23:42;100464.97;;;3.98;58.90
58072;BME280;60383;46.626;18.866;2023-02-04T09:26:09;100472.88;;;4.14;59.78
58072;BME280;60383;46.626;18.866;2023-02-04T09:28:35;100479.94;;;4.04;59.91
58072;BME280;60383;46.626;18.866;2023-02-04T09:31:01;100482.41;;;3.70;60.75
58072;BME280;60383;46.626;18.866;2023-02-04T09:33:26;100499.09;;;3.77;60.29
58072;BME280;60383;46.626;18.866;2023-02-04T09:35:52;100505.69;;;3.73;61.01
58072;BME280;60383;46.626;18.866;2023-02-04T09:38:17;100525.91;;;3.43;61.66
58072;BME280;60383;46.626;18.866;2023-02-04T09:40:46;100518.41;;;3.72;60.88
58072;BME280;60383;46.626;18.866;2023-02-04T09:43:19;100515.41;;;4.01;59.38
58072;BME280;60383;46.626;18.866;2023-02-04T09:45:47;100525.88;;;4.06;59.40
58072;BME280;60383;46.626;18.866;2023-02-04T09:48:13;100530.19;;;3.84;60.50
58072;BME280;60383;46.626;18.866;2023-02-04T09:50:40;100538.00;;;3.76;59.48
58072;BME280;60383;46.626;18.866;2023-02-04T09:53:06;100537.03;;;3.64;59.95
58072;BME280;60383;46.626;18.866;2023-02-04T09:55:38;100546.69;;;3.55;60.75
58072;BME280;60383;46.626;18.866;2023-02-04T09:58:23;100552.72;;;3.84;60.55
58072;BME280;60383;46.626;18.866;2023-02-04T10:01:16;100556.81;;;4.40;59.18
58072;BME280;60383;46.626;18.866;2023-02-04T10:03:42;100594.09;;;4.50;58.72
58072;BME280;60383;46.626;18.866;2023-02-04T10:06:17;100584.28;;;4.84;58.77
58072;BME280;60383;46.626;18.866;2023-02-04T10:08:44;100604.81;;;5.35;57.31
58072;BME280;60383;46.626;18.866;2023-02-04T10:11:11;100591.53;;;5.08;56.84
58072;BME280;60383;46.626;18.866;2023-02-04T10:13:41;100584.94;;;5.35;55.99
58072;BME280;60383;46.626;18.866;2023-02-04T10:16:16;100581.69;;;5.18;56.44
58072;BME280;60383;46.626;18.866;2023-02-04T10:18:42;100582.09;;;5.25;55.62
58072;BME280;60383;46.626;18.866;2023-02-04T10:23:42;100613.25;;;5.08;56.80
58072;BME280;60383;46.626;18.866;2023-02-04T10:26:10;100612.25;;;5.09;57.84
58072;BME280;60383;46.626;18.866;2023-02-04T10:28:36;100627.19;;;5.50;56.68
58072;BME280;60383;46.626;18.866;2023-02-04T10:31:05;100609.81;;;5.75;56.30
58072;BME280;60383;46.626;18.866;2023-02-04T10:33:33;100637.63;;;5.68;54.68
58072;BME280;60383;46.626;18.866;2023-02-04T10:35:59;100643.00;;;5.56;55.56
58072;BME280;60383;46.626;18.866;2023-02-04T10:38:25;100619.28;;;5.11;55.10
58072;BME280;60383;46.626;18.866;2023-02-04T10:41:04;100646.47;;;4.87;55.70
58072;BME280;60383;46.626;18.866;2023-02-04T10:43:30;100647.09;;;4.91;57.32
58072;BME280;60383;46.626;18.866;2023-02-04T10:46:02;100666.31;;;5.12;55.88
58072;BME280;60383;46.626;18.866;2023-02-04T10:48:28;100676.13;;;5.26;56.65
58072;BME280;60383;46.626;18.866;2023-02-04T10:50:56;100684.41;;;5.00;56.21
58072;BME280;60383;46.626;18.866;2023-02-04T10:53:24;100713.34;;;4.38;56.25
58072;BME280;60383;46.626;18.866;2023-02-04T10:56:16;100701.50;;;4.26;56.77
58072;BME280;60383;46.626;18.866;2023-02-04T10:58:42;100731.91;;;3.93;58.37
58072;BME280;60383;46.626;18.866;2023-02-04T11:01:10;100730.28;;;4.16;58.06
58072;BME280;60383;46.626;18.866;2023-02-04T11:03:37;100751.97;;;4.29;58.05
58072;BME280;60383;46.626;18.866;2023-02-04T11:06:22;100745.34;;;4.20;57.30
58072;BME280;60383;46.626;18.866;2023-02-04T11:08:49;100752.47;;;3.70;59.07
58072;BME280;60383;46.626;18.866;2023-02-04T11:11:22;100766.84;;;3.70;58.38
58072;BME280;60383;46.626;18.866;2023-02-04T11:23:50;100812.59;;;3.47;60.40
58072;BME280;60383;46.626;18.866;2023-02-04T11:26:35;100823.44;;;3.47;61.16
58072;BME280;60383;46.626;18.866;2023-02-04T11:34:06;100851.88;;;3.40;60.75
58072;BME280;60383;46.626;18.866;2023-02-04T11:36:32;100867.13;;;3.28;60.91
58072;BME280;60383;46.626;18.866;2023-02-04T11:39:06;100876.34;;;3.11;60.48
58072;BME280;60383;46.626;18.866;2023-02-04T11:41:37;100860.84;;;3.13;59.81
58072;BME280;60383;46.626;18.866;2023-02-04T11:44:02;100873.72;;;2.95;60.45
58072;BME280;60383;46.626;18.866;2023-02-04T11:46:28;100868.91;;;3.00;60.42
58072;BME280;60383;46.626;18.866;2023-02-04T11:48:56;100901.16;;;2.89;60.34
58072;BME280;60383;46.626;18.866;2023-02-04T11:51:30;100895.47;;;2.94;60.61
58072;BME280;60383;46.626;18.866;2023-02-04T11:53:56;100895.84;;;2.73;61.15
58072;BME280;60383;46.626;18.866;2023-02-04T11:56:22;100899.81;;;2.82;61.55
58072;BME280;60383;46.626;18.866;2023-02-04T11:58:55;100907.81;;;2.69;61.25
58072;BME280;60383;46.626;18.866;2023-02-04T12:01:23;100899.81;;;2.82;61.33
58072;BME280;60383;46.626;18.866;2023-02-04T12:03:59;100906.56;;;2.89;59.82
58072;BME280;60383;46.626;18.866;2023-02-04T12:06:28;100911.41;;;3.13;58.62
58072;BME280;60383;46.626;18.866;2023-02-04T12:09:19;100907.91;;;3.25;58.46
58072;BME280;60383;46.626;18.866;2023-02-04T12:11:58;100901.09;;;3.05;58.26
58072;BME280;60383;46.626;18.866;2023-02-04T12:14:35;100907.47;;;2.90;59.52
58072;BME280;60383;46.626;18.866;2023-02-04T12:17:15;100921.00;;;3.18;58.28
58072;BME280;60383;46.626;18.866;2023-02-04T12:19:41;100941.09;;;3.29;57.13
58072;BME280;60383;46.626;18.866;2023-02-04T12:22:07;100927.94;;;3.23;57.26
58072;BME280;60383;46.626;18.866;2023-02-04T12:24:32;100942.13;;;3.55;56.75
58072;BME280;60383;46.626;18.866;2023-02-04T12:26:57;100942.28;;;3.66;56.48
58072;BME280;60383;46.626;18.866;2023-02-04T12:29:23;100954.44;;;3.46;56.97
58072;BME280;60383;46.626;18.866;2023-02-04T12:31:48;100970.47;;;3.35;57.78
58072;BME280;60383;46.626;18.866;2023-02-04T12:34:14;100962.13;;;3.67;57.42
58072;BME280;60383;46.626;18.866;2023-02-04T12:36:41;100962.81;;;3.71;56.44
58072;BME280;60383;46.626;18.866;2023-02-04T12:39:07;100971.94;;;3.82;55.42
58072;BME280;60383;46.626;18.866;2023-02-04T12:41:32;100944.13;;;3.93;55.86
58072;BME280;60383;46.626;18.866;2023-02-04T12:43:58;100981.97;;;3.95;55.10
58072;BME280;60383;46.626;18.866;2023-02-04T12:46:25;100989.72;;;4.01;54.71
58072;BME280;60383;46.626;18.866;2023-02-04T12:48:51;100999.38;;;4.32;54.80
58072;BME280;60383;46.626;18.866;2023-02-04T12:51:16;100996.09;;;4.27;55.25
58072;BME280;60383;46.626;18.866;2023-02-04T12:53:42;100985.00;;;4.45;54.55
58072;BME280;60383;46.626;18.866;2023-02-04T12:56:07;100999.22;;;4.48;53.83
58072;BME280;60383;46.626;18.866;2023-02-04T12:58:33;101011.91;;;4.48;55.85
58072;BME280;60383;46.626;18.866;2023-02-04T13:00:58;100997.44;;;4.75;55.82
58072;BME280;60383;46.626;18.866;2023-02-04T13:03:24;101001.66;;;4.66;55.44
58072;BME280;60383;46.626;18.866;2023-02-04T13:05:49;100998.59;;;4.58;56.05
58072;BME280;60383;46.626;18.866;2023-02-04T13:08:15;101005.34;;;4.65;55.85